Flight Track Log - Related Links

Times and Time Zones

All times are in EDT time to prevent confusion due to time zone crossing. See the AWE1262 flight status page for this flight to view local times or setup timezone preferences in your user account.

Time Position Orientation Groundspeed Altitude Reporting Facility
EDT Latitude Longitude Course Direction KTS MPH feet Rate Location/Type
Tue 09:35:40 PM 39.8667 -75.2833 North 159 183 1,000  Level Philadelphia TRACON
Tue 09:36:52 PM 39.8167 -75.3167 207° Southwest 217 250 3,300 2,682 Climbing Philadelphia TRACON
Tue 09:37:52 PM 39.7667 -75.3667 218° Southwest 227 261 6,900 3,500 Climbing Philadelphia TRACON
Tue 09:38:52 PM 39.7000 -75.3833 191° South 255 293 10,300 2,450 Climbing Philadelphia TRACON
Tue 09:39:52 PM 39.7000 -75.2833 90° East 316 364 11,800 850 Climbing Philadelphia TRACON
Tue 09:40:52 PM 39.7167 -75.1667 79° East 388 447 12,000 398 Climbing Philadelphia TRACON
Tue 09:41:00 PM 39.9252 -74.5667 North  Level FlightAware Approximate
Tue 09:43:08 PM 39.7650 -74.8731 78° East 389 448 13,100  Level New York Center
Tue 09:44:06 PM 39.7994 -74.7211 74° East 394 453 15,600 2,390 Climbing New York Center
Tue 09:45:06 PM 39.8861 -74.6233 41° Northeast 383 441 17,800 2,083 Climbing New York Center
Tue 09:46:07 PM 39.9764 -74.5361 37° Northeast 390 449 19,800 2,066 Climbing New York Center
Tue 09:47:08 PM 40.0753 -74.4383 37° Northeast 409 471 22,000 1,916 Climbing New York Center
Tue 09:48:06 PM 40.1719 -74.3431 37° Northeast 423 487 23,600 1,729 Climbing New York Center
Tue 09:49:06 PM 40.2878 -74.3028 15° North 428 493 25,400 1,537 Climbing New York Center
Tue 09:50:07 PM 40.4136 -74.2819 North 422 486 26,700 1,570 Climbing New York Center
Tue 09:51:58 PM 40.6292 -74.2394 North 468 539 29,900 1,734 Climbing Boston Center
Tue 09:53:00 PM 40.7608 -74.2156 North 447 514 31,700 1,525 Climbing Boston Center
Tue 09:54:00 PM 40.8800 -74.1914 North 442 509 33,000 655 Climbing Boston Center
Tue 09:54:59 PM 41.0056 -74.1675 North 442 509 33,000  Level Boston Center
Tue 09:56:00 PM 41.1247 -74.1403 10° North 442 509 33,000  Level Boston Center
Tue 09:56:58 PM 41.2481 -74.1158 North 442 509 33,000  Level Boston Center
Tue 09:57:58 PM 41.3547 -74.0911 10° North 442 509 33,000  Level Boston Center
Tue 09:58:59 PM 41.4800 -74.0667 North 449 517 33,000  Level Boston Center
Tue 10:00:00 PM 41.6158 -74.0422 North 455 524 33,000  Level Boston Center
Tue 10:00:58 PM 41.7392 -74.0147 North 449 517 33,000 -153 Level Boston Center
Tue 10:01:58 PM 41.8458 -73.9953 North 442 509 32,700 -750 Descending Boston Center
Tue 10:02:58 PM 41.9753 -73.9703 North 437 503 31,500 -1,488 Descending Boston Center
Tue 10:03:59 PM 42.0967 -73.9425 10° North 437 503 29,700 -2,628 Descending Boston Center
Tue 10:04:59 PM 42.2200 -73.9175 North 437 503 26,200 -2,269 Descending Boston Center
Tue 10:05:58 PM 42.3431 -73.8922 North 442 509 25,200 -800 Descending Boston Center
Tue 10:06:59 PM 42.4425 -73.7906 37° Northeast 437 503 24,600 -650 Descending Boston Center
Tue 10:07:58 PM 42.4900 -73.6256 69° East 421 484 23,900 -1,050 Descending Boston Center
Tue 10:08:59 PM 42.5292 -73.4544 73° East 440 506 22,500 -1,377 Descending Boston Center
Tue 10:10:00 PM 42.5661 -73.2969 72° East 468 539 21,100 -1,563 Descending Boston Center
Tue 10:10:58 PM 42.6067 -73.1311 72° East 445 512 19,400 -1,068 Descending Boston Center
Tue 10:11:58 PM 42.6431 -72.9708 73° East 431 496 19,000 -590 Descending Boston Center
Tue 10:13:00 PM 42.6728 -72.8100 76° East 431 496 18,200 -1,180 Descending Boston Center
Tue 10:14:00 PM 42.7025 -72.6492 76° East 431 496 16,600 -1,462 Descending Boston Center
Tue 10:14:59 PM 42.7233 -72.5164 78° East 426 490 15,300 -1,462 Descending Boston Center
Tue 10:15:59 PM 42.7483 -72.3667 77° East 416 479 13,700 -1,623 Descending Boston Center
Tue 10:17:01 PM 42.7753 -72.2111 77° East 384 442 12,000 -1,462 Descending Boston Center
Tue 10:17:58 PM 42.7958 -72.0892 77° East 362 417 10,800 -1,271 Descending Boston Center
Tue 10:18:59 PM 42.8142 -71.9731 78° East 312 359 9,500 -1,455 Descending Boston Center
Tue 10:20:10 PM 42.8283 -71.8683 80° East 292 336 7,600 -1,591 Descending Boston Center
Tue 10:21:11 PM 42.8256 -71.7436 92° East 276 318 6,000 -1,190 Descending Boston Center
Tue 10:22:11 PM 42.7939 -71.6678 120° Southeast 254 292 5,200 -1,388 Descending Boston Center
Tue 10:23:12 PM 42.8142 -71.5881 71° East 203 234 3,200 -1,438 Descending Boston Center
Tue 10:24:12 PM 42.8511 -71.5481 38° Northeast 178 205 2,300 -915 Descending Boston Center
Tue 10:25:10 PM 42.8842 -71.5050 44° Northeast 156 180 1,400 -756 Descending Boston Center
Tue 10:26:11 PM 42.9089 -71.4733 43° Northeast 134 154 800 -492 Descending Boston Center
Tue 10:27:12 PM 42.9378 -71.4361 43° Northeast 129 148 400 4,066 Descending Boston Center
Tue 10:28:12 PM 42.9647 -71.4017 43° Northeast 129 148 9,000 4,300 Climbing Boston Center
Tue 10:29:12 PM 42.9892 -71.3644 48° Northeast 129 148 9,000  Level Boston Center
Tue 10:30:11 PM 43.0161 -71.3297 43° Northeast 129 148 9,000  Level Boston Center
Tue 10:31:12 PM 43.0306 -71.3067 49° Northeast 129 148 9,000  Level Boston Center
Tue 10:33:00 PM 42.9328 -71.4358 224° Southwest  Level Estimated

Login

Don't have an account? Register now (free) for customized features, flight alerts, and more!